createdAt,value
2015-11-20T00:00:01.275Z,73492
2015-11-20T00:00:13.509Z,73507
2015-11-20T00:00:25.837Z,73512
2015-11-20T00:00:38.181Z,73521
2015-11-20T00:00:49.806Z,73527
2015-11-20T00:01:02.153Z,73529
2015-11-20T00:01:14.512Z,73564
2015-11-20T00:01:26.872Z,73571
2015-11-20T00:01:39.215Z,73560
2015-11-20T00:01:51.559Z,73558
2015-11-20T00:02:03.905Z,73561
2015-11-20T00:02:16.264Z,73569
2015-11-20T00:02:28.608Z,73563
2015-11-20T00:02:40.249Z,73537
2015-11-20T00:02:52.592Z,73529
2015-11-20T00:03:04.939Z,73526
2015-11-20T00:03:17.314Z,73507
2015-11-20T00:03:29.736Z,73501
2015-11-20T00:03:42.111Z,73496
2015-11-20T00:03:54.470Z,73512
2015-11-20T00:04:06.833Z,73506
2015-11-20T00:04:18.489Z,73505
2015-11-20T00:04:30.864Z,73495
2015-11-20T00:04:43.301Z,73493
2015-11-20T00:04:55.739Z,73488
2015-11-20T00:05:08.133Z,73437
2015-11-20T00:05:20.492Z,73438
2015-11-20T00:05:32.883Z,73463
2015-11-20T00:05:45.258Z,73480
2015-11-20T00:05:57.601Z,73498
2015-11-20T00:06:09.948Z,73522
2015-11-20T00:06:22.276Z,73517
2015-11-20T00:06:34.620Z,73529
2015-11-20T00:06:47.089Z,73526
2015-11-20T00:06:59.432Z,73525
2015-11-20T00:07:11.779Z,73531
2015-11-20T00:07:23.404Z,73537
2015-11-20T00:07:35.748Z,73539
2015-11-20T00:07:48.107Z,73523
2015-11-20T00:08:00.451Z,73510
2015-11-20T00:08:12.812Z,73507
2015-11-20T00:08:25.156Z,73513
2015-11-20T00:08:37.500Z,73530
2015-11-20T00:08:49.859Z,73544
2015-11-20T00:09:01.500Z,73550
2015-11-20T00:09:13.862Z,73524
2015-11-20T00:09:26.222Z,73501
2015-11-20T00:09:38.003Z,73517
2015-11-20T00:09:50.362Z,73542
2015-11-20T00:10:02.597Z,73538
2015-11-20T00:10:14.975Z,73544
2015-11-20T00:10:27.334Z,73541
2015-11-20T00:10:39.725Z,73514
2015-11-20T00:10:52.162Z,73488
2015-11-20T00:11:04.662Z,73499
2015-11-20T00:11:17.039Z,73496
2015-11-20T00:11:29.445Z,73502
2015-11-20T00:11:41.789Z,73498
2015-11-20T00:11:54.133Z,73496
2015-11-20T00:12:05.774Z,73491
2015-11-20T00:12:18.121Z,73487
2015-11-20T00:12:30.340Z,73493
2015-11-20T00:12:42.715Z,73514
2015-11-20T00:12:55.059Z,73520
2015-11-20T00:13:07.418Z,73527
2015-11-20T00:13:19.764Z,73503
2015-11-20T00:13:32.108Z,73501
2015-11-20T00:13:44.451Z,73502
2015-11-20T00:13:56.076Z,73510
2015-11-20T00:14:08.498Z,73520
2015-11-20T00:14:20.923Z,73497
2015-11-20T00:14:33.298Z,73498
2015-11-20T00:14:45.642Z,73501
2015-11-20T00:14:58.017Z,73503
2015-11-20T00:15:10.392Z,73512
2015-11-20T00:15:22.770Z,73511
2015-11-20T00:15:35.161Z,73513
2015-11-20T00:15:47.520Z,73510
2015-11-20T00:15:59.911Z,73523
2015-11-20T00:16:12.286Z,73525
2015-11-20T00:16:24.538Z,73520
2015-11-20T00:16:36.881Z,73516
2015-11-20T00:16:49.209Z,73520
2015-11-20T00:17:01.553Z,73529
2015-11-20T00:17:13.900Z,73557
2015-11-20T00:17:26.322Z,73547
2015-11-20T00:17:38.728Z,73522
2015-11-20T00:17:51.072Z,73509
2015-11-20T00:18:03.416Z,73532
2015-11-20T00:18:15.605Z,73548
2015-11-20T00:18:27.964Z,73540
2015-11-20T00:18:40.324Z,73550
2015-11-20T00:18:52.714Z,73548
2015-11-20T00:19:05.058Z,73537
2015-11-20T00:19:17.405Z,73492
2015-11-20T00:19:29.780Z,73520
2015-11-20T00:19:42.186Z,73543
2015-11-20T00:19:54.624Z,73540
2015-11-20T00:20:06.280Z,73551
2015-11-20T00:20:18.658Z,73545
2015-11-20T00:20:31.017Z,73550
2015-11-20T00:20:43.377Z,73562
2015-11-20T00:20:55.736Z,73541
2015-11-20T00:21:08.111Z,73536
2015-11-20T00:21:20.505Z,73538
2015-11-20T00:21:32.864Z,73516
2015-11-20T00:21:45.223Z,73526
2015-11-20T00:21:57.567Z,73531
2015-11-20T00:22:09.786Z,73519
2015-11-20T00:22:22.148Z,73516
2015-11-20T00:22:34.492Z,73510
2015-11-20T00:22:46.898Z,73504
2015-11-20T00:22:59.258Z,73505
2015-11-20T00:23:11.601Z,73504
2015-11-20T00:23:23.948Z,73507
2015-11-20T00:23:36.292Z,73510
2015-11-20T00:23:48.651Z,73520
2015-11-20T00:24:00.995Z,73530
2015-11-20T00:24:13.386Z,73538
2015-11-20T00:24:25.731Z,73553
2015-11-20T00:24:38.091Z,73534
2015-11-20T00:24:50.466Z,73501
2015-11-20T00:25:02.882Z,73495
2015-11-20T00:25:15.257Z,73481
2015-11-20T00:25:27.635Z,73474
2015-11-20T00:25:40.010Z,73467
2015-11-20T00:25:51.666Z,73488
2015-11-20T00:26:04.057Z,73460
2015-11-20T00:26:16.432Z,73475
2015-11-20T00:26:28.825Z,73483
2015-11-20T00:26:41.185Z,73511
2015-11-20T00:26:53.544Z,73528
2015-11-20T00:27:05.935Z,73528
2015-11-20T00:27:18.278Z,73527
2015-11-20T00:27:30.625Z,73507
2015-11-20T00:27:42.969Z,73519
2015-11-20T00:27:55.313Z,73524
2015-11-20T00:28:07.656Z,73539
2015-11-20T00:28:20.000Z,73552
2015-11-20T00:28:32.393Z,73547
2015-11-20T00:28:44.768Z,73502
2015-11-20T00:28:57.112Z,73496
2015-11-20T00:29:09.487Z,73528
2015-11-20T00:29:21.846Z,73539
2015-11-20T00:29:34.224Z,73540
2015-11-20T00:29:46.583Z,73538
2015-11-20T00:29:58.974Z,73520
2015-11-20T00:30:11.349Z,73499
2015-11-20T00:30:23.724Z,73497
2015-11-20T00:30:36.118Z,73504
2015-11-20T00:30:47.774Z,73529
2015-11-20T00:30:59.430Z,73530
2015-11-20T00:31:11.836Z,73528
2015-11-20T00:31:24.211Z,73527
2015-11-20T00:31:36.542Z,73518
2015-11-20T00:31:48.902Z,73522
2015-11-20T00:32:00.527Z,73523
2015-11-20T00:32:12.871Z,73502
2015-11-20T00:32:25.214Z,73496
2015-11-20T00:32:37.560Z,73485
2015-11-20T00:32:49.248Z,73489
2015-11-20T00:33:01.638Z,73498
2015-11-20T00:33:14.013Z,73500
2015-11-20T00:33:26.357Z,73502
2015-11-20T00:33:38.704Z,73508
2015-11-20T00:33:51.047Z,73500
2015-11-20T00:34:03.391Z,73496
2015-11-20T00:34:15.797Z,73499
2015-11-20T00:34:28.172Z,73503
2015-11-20T00:34:40.535Z,73500
2015-11-20T00:34:52.894Z,73497
2015-11-20T00:35:05.269Z,73497
2015-11-20T00:35:17.644Z,73492
2015-11-20T00:35:30.019Z,73491
2015-11-20T00:35:42.397Z,73480
2015-11-20T00:35:54.788Z,73476
2015-11-20T00:36:07.178Z,73494
2015-11-20T00:36:18.835Z,73488
2015-11-20T00:36:31.225Z,73493
2015-11-20T00:36:43.587Z,73512
2015-11-20T00:36:55.915Z,73527
2015-11-20T00:37:08.337Z,73531
2015-11-20T00:37:20.680Z,73532
2015-11-20T00:37:33.024Z,73503
2015-11-20T00:37:45.387Z,73503
2015-11-20T00:37:57.730Z,73477
2015-11-20T00:38:10.090Z,73477
2015-11-20T00:38:22.433Z,73494
2015-11-20T00:38:34.793Z,73514
2015-11-20T00:38:47.139Z,73504
2015-11-20T00:38:59.482Z,73477
2015-11-20T00:39:11.889Z,73469
2015-11-20T00:39:24.232Z,73469
2015-11-20T00:39:36.607Z,73472
2015-11-20T00:39:48.986Z,73478
2015-11-20T00:40:01.346Z,73482
2015-11-20T00:40:13.705Z,73483
2015-11-20T00:40:26.080Z,73465
2015-11-20T00:40:38.455Z,73463
2015-11-20T00:40:50.114Z,73473
2015-11-20T00:41:02.489Z,73477
2015-11-20T00:41:14.864Z,73466
2015-11-20T00:41:27.302Z,73474
2015-11-20T00:41:39.708Z,73487
2015-11-20T00:41:51.366Z,73498
2015-11-20T00:42:03.741Z,73510
2015-11-20T00:42:15.929Z,73517
2015-11-20T00:42:28.288Z,73529
2015-11-20T00:42:40.616Z,73511
2015-11-20T00:42:52.978Z,73481
2015-11-20T00:43:05.337Z,73474
2015-11-20T00:43:17.681Z,73467
2015-11-20T00:43:30.025Z,73469
2015-11-20T00:43:42.368Z,73471
2015-11-20T00:43:54.716Z,73477
2015-11-20T00:44:07.075Z,73476
2015-11-20T00:44:19.419Z,73460
2015-11-20T00:44:31.794Z,73456
2015-11-20T00:44:44.154Z,73466
2015-11-20T00:44:56.516Z,73482
2015-11-20T00:45:08.860Z,73480
2015-11-20T00:45:21.282Z,73490
2015-11-20T00:45:33.672Z,73486
2015-11-20T00:45:46.032Z,73491
2015-11-20T00:45:58.409Z,73487
2015-11-20T00:46:10.784Z,73470
2015-11-20T00:46:23.159Z,73475
2015-11-20T00:46:35.580Z,73480
2015-11-20T00:46:48.096Z,73485
2015-11-20T00:47:00.457Z,73500
2015-11-20T00:47:12.848Z,73511
2015-11-20T00:47:25.239Z,73499
2015-11-20T00:47:37.582Z,73490
2015-11-20T00:47:49.926Z,73509
2015-11-20T00:48:02.274Z,73470
2015-11-20T00:48:14.618Z,73429
2015-11-20T00:48:26.961Z,73419
2015-11-20T00:48:38.649Z,73439
2015-11-20T00:48:51.086Z,73466
2015-11-20T00:49:03.433Z,73473
2015-11-20T00:49:15.777Z,73480
2015-11-20T00:49:28.136Z,73476
2015-11-20T00:49:40.480Z,73485
2015-11-20T00:49:52.886Z,73487
2015-11-20T00:50:05.310Z,73483
2015-11-20T00:50:17.638Z,73496
2015-11-20T00:50:30.013Z,73512
2015-11-20T00:50:42.373Z,73504
2015-11-20T00:50:54.732Z,73483
2015-11-20T00:51:07.093Z,73459
2015-11-20T00:51:19.468Z,73482
2015-11-20T00:51:31.843Z,73490
2015-11-20T00:51:44.218Z,73480
2015-11-20T00:51:55.922Z,73474
2015-11-20T00:52:08.300Z,73468
2015-11-20T00:52:20.690Z,73467
2015-11-20T00:52:33.065Z,73461
2015-11-20T00:52:45.471Z,73452
2015-11-20T00:52:57.862Z,73451
2015-11-20T00:53:10.272Z,73461
2015-11-20T00:53:22.663Z,73469
2015-11-20T00:53:35.007Z,73461
2015-11-20T00:53:47.350Z,73477
2015-11-20T00:53:59.710Z,73493
2015-11-20T00:54:12.056Z,73497
2015-11-20T00:54:24.399Z,73494
2015-11-20T00:54:36.774Z,73480
2015-11-20T00:54:49.134Z,73475
2015-11-20T00:55:01.477Z,73475
2015-11-20T00:55:13.824Z,73491
2015-11-20T00:55:26.168Z,73473
2015-11-20T00:55:38.496Z,73484
2015-11-20T00:55:50.855Z,73480
2015-11-20T00:56:03.199Z,73484
2015-11-20T00:56:15.624Z,73484
2015-11-20T00:56:28.015Z,73490
2015-11-20T00:56:40.374Z,73493
2015-11-20T00:56:52.593Z,73497
2015-11-20T00:57:04.968Z,73496
2015-11-20T00:57:17.346Z,73481
2015-11-20T00:57:29.752Z,73475
2015-11-20T00:57:42.143Z,73481
2015-11-20T00:57:54.580Z,73476
2015-11-20T00:58:06.955Z,73469
2015-11-20T00:58:19.317Z,73475
2015-11-20T00:58:31.660Z,73474
2015-11-20T00:58:44.004Z,73473
2015-11-20T00:58:56.348Z,73478
2015-11-20T00:59:07.973Z,73484
2015-11-20T00:59:20.334Z,73485
2015-11-20T00:59:32.694Z,73482
2015-11-20T00:59:45.100Z,73472
2015-11-20T00:59:57.444Z,73472
2015-11-20T01:00:09.803Z,73468
2015-11-20T01:00:22.134Z,73447
2015-11-20T01:00:34.478Z,73450
2015-11-20T01:00:46.822Z,73467
2015-11-20T01:00:59.165Z,73475
2015-11-20T01:01:11.525Z,73471
2015-11-20T01:01:23.887Z,73471
2015-11-20T01:01:36.246Z,73461
2015-11-20T01:01:48.606Z,73462
2015-11-20T01:02:00.965Z,73467
2015-11-20T01:02:13.325Z,73479
2015-11-20T01:02:25.703Z,73498
2015-11-20T01:02:38.078Z,73485
2015-11-20T01:02:50.453Z,73499
2015-11-20T01:03:02.890Z,73474
2015-11-20T01:03:15.296Z,73444
2015-11-20T01:03:27.673Z,73406
2015-11-20T01:03:40.080Z,73488
2015-11-20T01:03:52.408Z,73465
2015-11-20T01:04:04.751Z,73449
2015-11-20T01:04:17.095Z,73453
2015-11-20T01:04:29.442Z,73463
2015-11-20T01:04:41.786Z,73474
2015-11-20T01:04:54.129Z,73476
2015-11-20T01:05:06.489Z,73448
2015-11-20T01:05:18.817Z,73435
2015-11-20T01:05:31.164Z,73465
2015-11-20T01:05:43.507Z,73486
2015-11-20T01:05:55.851Z,73480
2015-11-20T01:06:08.211Z,73476
2015-11-20T01:06:20.539Z,73429
2015-11-20T01:06:32.885Z,73427
2015-11-20T01:06:45.245Z,73439
2015-11-20T01:06:57.604Z,73464
2015-11-20T01:07:10.010Z,73477
2015-11-20T01:07:22.385Z,73479
2015-11-20T01:07:34.747Z,73485
2015-11-20T01:07:47.106Z,73491
2015-11-20T01:07:59.481Z,73476
2015-11-20T01:08:11.872Z,73466
2015-11-20T01:08:24.247Z,73452
2015-11-20T01:08:36.625Z,73442
2015-11-20T01:08:49.000Z,73436
2015-11-20T01:09:01.422Z,73436
2015-11-20T01:09:13.859Z,73443
2015-11-20T01:09:26.234Z,73462
2015-11-20T01:09:38.581Z,73466
2015-11-20T01:09:50.925Z,73446
2015-11-20T01:10:03.268Z,73443
2015-11-20T01:10:15.628Z,73442
2015-11-20T01:10:27.987Z,73450
2015-11-20T01:10:40.334Z,73454
2015-11-20T01:10:52.678Z,73470
2015-11-20T01:11:05.021Z,73481
2015-11-20T01:11:17.365Z,73487
2015-11-20T01:11:29.709Z,73497
2015-11-20T01:11:42.056Z,73500
2015-11-20T01:11:54.415Z,73496
2015-11-20T01:12:06.806Z,73499
2015-11-20T01:12:19.149Z,73473
2015-11-20T01:12:31.509Z,73439
2015-11-20T01:12:43.871Z,73422
2015-11-20T01:12:55.512Z,73447
2015-11-20T01:13:07.871Z,73455
2015-11-20T01:13:20.324Z,73467
2015-11-20T01:13:32.762Z,73463
2015-11-20T01:13:45.139Z,73455
2015-11-20T01:13:57.514Z,73454
2015-11-20T01:14:09.904Z,73446
2015-11-20T01:14:22.279Z,73422
2015-11-20T01:14:34.686Z,73388
2015-11-20T01:14:47.017Z,73385
2015-11-20T01:14:59.361Z,73341
2015-11-20T01:15:11.704Z,73327
2015-11-20T01:15:24.142Z,73397
2015-11-20T01:15:36.486Z,73451
2015-11-20T01:15:48.129Z,73463
2015-11-20T01:16:00.473Z,73453
2015-11-20T01:16:12.817Z,73443
2015-11-20T01:16:25.160Z,73456
2015-11-20T01:16:37.535Z,73463
2015-11-20T01:16:49.913Z,73467
2015-11-20T01:17:02.257Z,73473
2015-11-20T01:17:14.601Z,73481
2015-11-20T01:17:26.960Z,73475
2015-11-20T01:17:37.898Z,73482
2015-11-20T01:17:50.275Z,73495
2015-11-20T01:18:02.634Z,73496
2015-11-20T01:18:14.994Z,73507
2015-11-20T01:18:27.353Z,73508
2015-11-20T01:18:39.712Z,73492
2015-11-20T01:18:52.106Z,73481
2015-11-20T01:19:04.481Z,73480
2015-11-20T01:19:16.856Z,73478
2015-11-20T01:19:29.231Z,73482
2015-11-20T01:19:41.684Z,73489
2015-11-20T01:19:53.343Z,73487
2015-11-20T01:20:05.687Z,73481
2015-11-20T01:20:18.031Z,73487
2015-11-20T01:20:30.375Z,73490
2015-11-20T01:20:42.718Z,73498
2015-11-20T01:20:55.080Z,73469
2015-11-20T01:21:07.455Z,73504
2015-11-20T01:21:19.783Z,73495
2015-11-20T01:21:32.127Z,73466
2015-11-20T01:21:43.767Z,73449
2015-11-20T01:21:56.114Z,73459
2015-11-20T01:22:08.458Z,73500
2015-11-20T01:22:20.801Z,73494
2015-11-20T01:22:51.602Z,73497
2015-11-20T01:23:04.274Z,73433
2015-11-20T01:23:16.915Z,73450
2015-11-20T01:23:29.290Z,73473
2015-11-20T01:23:41.665Z,73473
2015-11-20T01:23:54.042Z,73479
2015-11-20T01:24:06.479Z,73472
2015-11-20T01:24:18.917Z,73487
2015-11-20T01:24:31.276Z,73496
2015-11-20T01:24:43.667Z,73480
2015-11-20T01:24:56.013Z,73453
2015-11-20T01:25:08.356Z,73445
2015-11-20T01:25:20.731Z,73447
2015-11-20T01:25:33.075Z,73443
2015-11-20T01:25:45.434Z,73440
2015-11-20T01:25:57.782Z,73437
2015-11-20T01:26:10.157Z,73434
2015-11-20T01:26:22.501Z,73433
2015-11-20T01:26:34.845Z,73454
2015-11-20T01:26:47.204Z,73488
2015-11-20T01:26:59.565Z,73490
2015-11-20T01:27:11.909Z,73477
2015-11-20T01:27:24.253Z,73479
2015-11-20T01:27:36.612Z,73491
2015-11-20T01:27:48.972Z,73470
2015-11-20T01:28:01.334Z,73441
2015-11-20T01:28:13.725Z,73430
2015-11-20T01:28:26.115Z,73437
2015-11-20T01:28:38.490Z,73454
2015-11-20T01:28:50.865Z,73448
2015-11-20T01:29:03.243Z,73447
2015-11-20T01:29:15.618Z,73452
2015-11-20T01:29:28.056Z,73456
2015-11-20T01:29:40.446Z,73471
2015-11-20T01:29:52.790Z,73478
2015-11-20T01:30:05.121Z,73476
2015-11-20T01:30:17.449Z,73477
2015-11-20T01:30:29.793Z,73475
2015-11-20T01:30:42.137Z,73475
2015-11-20T01:30:54.465Z,73487
2015-11-20T01:31:06.811Z,73509
2015-11-20T01:31:19.201Z,73519
2015-11-20T01:31:31.576Z,73482
2015-11-20T01:31:43.951Z,73463
2015-11-20T01:31:56.295Z,73504
2015-11-20T01:32:08.642Z,73523
2015-11-20T01:32:20.986Z,73497
2015-11-20T01:32:33.345Z,73510
2015-11-20T01:32:45.751Z,73505
2015-11-20T01:32:58.173Z,73497
2015-11-20T01:33:10.536Z,73486
2015-11-20T01:33:22.895Z,73459
2015-11-20T01:33:35.270Z,73394
2015-11-20T01:33:47.801Z,73456
2015-11-20T01:34:00.161Z,73480
2015-11-20T01:34:12.539Z,73473
2015-11-20T01:34:24.914Z,73487
2015-11-20T01:34:37.289Z,73479
2015-11-20T01:34:49.664Z,73481
2015-11-20T01:35:02.054Z,73478
2015-11-20T01:35:14.416Z,73456
2015-11-20T01:35:26.759Z,73457
2015-11-20T01:35:39.119Z,73470
2015-11-20T01:35:51.462Z,73479
2015-11-20T01:36:03.837Z,73475
2015-11-20T01:36:16.215Z,73473
2015-11-20T01:36:27.731Z,73475
2015-11-20T01:36:40.075Z,73472
2015-11-20T01:36:52.434Z,73460
2015-11-20T01:37:04.794Z,73462
2015-11-20T01:37:17.139Z,73465
2015-11-20T01:37:29.530Z,73463
2015-11-20T01:37:41.874Z,73463
2015-11-20T01:37:54.217Z,73460
2015-11-20T01:38:06.577Z,73460
2015-11-20T01:38:18.955Z,73462
2015-11-20T01:38:31.330Z,73455
2015-11-20T01:38:43.689Z,73450
2015-11-20T01:38:56.064Z,73439
2015-11-20T01:39:08.439Z,73439
2015-11-20T01:39:20.677Z,73450
2015-11-20T01:39:33.083Z,73463
2015-11-20T01:39:45.520Z,73471
2015-11-20T01:39:57.895Z,73479
2015-11-20T01:40:10.302Z,73469
2015-11-20T01:40:22.664Z,73463
2015-11-20T01:40:35.008Z,73485
2015-11-20T01:40:47.351Z,73469
2015-11-20T01:40:59.695Z,73430
2015-11-20T01:41:12.039Z,73442
2015-11-20T01:41:24.401Z,73434
2015-11-20T01:41:36.761Z,73445
2015-11-20T01:41:49.151Z,73461
2015-11-20T01:42:01.511Z,73469
2015-11-20T01:42:13.854Z,73479
2015-11-20T01:42:26.216Z,73478
2015-11-20T01:42:38.560Z,73475
2015-11-20T01:42:50.981Z,73464
2015-11-20T01:43:03.372Z,73452
2015-11-20T01:43:15.716Z,73444
2015-11-20T01:43:28.078Z,73438
2015-11-20T01:43:40.438Z,73451
2015-11-20T01:43:52.781Z,73445
2015-11-20T01:44:05.141Z,73411
2015-11-20T01:44:17.516Z,73411
2015-11-20T01:44:29.894Z,73436
2015-11-20T01:44:42.284Z,73452
2015-11-20T01:44:54.706Z,73451
2015-11-20T01:45:07.097Z,73448
2015-11-20T01:45:19.472Z,73444
2015-11-20T01:45:31.849Z,73456
2015-11-20T01:45:44.239Z,73464
2015-11-20T01:45:56.646Z,73466
2015-11-20T01:46:09.052Z,73471
2015-11-20T01:46:21.427Z,73466
2015-11-20T01:46:33.774Z,73462
2015-11-20T01:46:46.102Z,73438
2015-11-20T01:46:58.508Z,73436
2015-11-20T01:47:10.899Z,73420
2015-11-20T01:47:23.242Z,73431
2015-11-20T01:47:35.589Z,73432
2015-11-20T01:47:47.949Z,73434
2015-11-20T01:48:00.292Z,73433
2015-11-20T01:48:12.714Z,73452
2015-11-20T01:48:25.120Z,73465
2015-11-20T01:48:37.467Z,73480
2015-11-20T01:48:49.842Z,73473
2015-11-20T01:49:02.202Z,73480
2015-11-20T01:49:14.561Z,73477
2015-11-20T01:49:26.905Z,73481
2015-11-20T01:49:39.283Z,73474
2015-11-20T01:49:51.705Z,73474
2015-11-20T01:50:04.173Z,73476
2015-11-20T01:50:16.533Z,73479
2015-11-20T01:50:28.908Z,73481
2015-11-20T01:50:41.286Z,73474
2015-11-20T01:50:53.645Z,73450
2015-11-20T01:51:05.395Z,73444
2015-11-20T01:51:17.833Z,73451
2015-11-20T01:51:30.176Z,73432
2015-11-20T01:51:42.522Z,73425
2015-11-20T01:51:54.975Z,73439
2015-11-20T01:52:07.335Z,73434
2015-11-20T01:52:19.678Z,73445
2015-11-20T01:52:32.022Z,73436
2015-11-20T01:52:44.369Z,73429
2015-11-20T01:52:56.728Z,73439
2015-11-20T01:53:09.088Z,73420
2015-11-20T01:53:21.509Z,73428
2015-11-20T01:53:33.853Z,73409
2015-11-20T01:53:46.199Z,73410
2015-11-20T01:53:58.558Z,73421
2015-11-20T01:54:10.949Z,73428
2015-11-20T01:54:23.324Z,73429
2015-11-20T01:54:35.668Z,73434
2015-11-20T01:54:48.031Z,73429
2015-11-20T01:55:00.406Z,73425
2015-11-20T01:55:12.797Z,73428
2015-11-20T01:55:25.172Z,73444
2015-11-20T01:55:37.578Z,73448
2015-11-20T01:55:49.939Z,73448
2015-11-20T01:56:02.314Z,73445
2015-11-20T01:56:14.689Z,73425
2015-11-20T01:56:27.080Z,73419
2015-11-20T01:56:39.424Z,73428
2015-11-20T01:56:51.833Z,73443
2015-11-20T01:57:04.177Z,73469
2015-11-20T01:57:16.364Z,73474
2015-11-20T01:57:28.708Z,73454
2015-11-20T01:57:41.052Z,73446
2015-11-20T01:57:53.398Z,73469
2015-11-20T01:58:05.805Z,73476
2015-11-20T01:58:18.211Z,73468
2015-11-20T01:58:30.570Z,73466
2015-11-20T01:58:42.758Z,73472
2015-11-20T01:58:54.792Z,73467
2015-11-20T01:59:06.980Z,73468
2015-11-20T01:59:19.511Z,73459
2015-11-20T01:59:31.730Z,73451
2015-11-20T01:59:44.136Z,73431
2015-11-20T01:59:56.591Z,73415
2015-11-20T02:00:08.935Z,73411
2015-11-20T02:00:21.310Z,73396
2015-11-20T02:00:33.685Z,73391
2015-11-20T02:00:45.341Z,73404
2015-11-20T02:00:57.703Z,73429
2015-11-20T02:01:10.203Z,73438
2015-11-20T02:01:22.578Z,73449
2015-11-20T02:01:34.938Z,73449
2015-11-20T02:01:46.641Z,73460
2015-11-20T02:01:59.003Z,73441
2015-11-20T02:02:11.363Z,73430
2015-11-20T02:02:23.738Z,73443
2015-11-20T02:02:36.081Z,73465
2015-11-20T02:02:48.425Z,73482
2015-11-20T02:03:00.803Z,73486
2015-11-20T02:03:13.209Z,73476
2015-11-20T02:03:25.553Z,73470
2015-11-20T02:03:37.897Z,73455
2015-11-20T02:03:50.225Z,73451
2015-11-20T02:04:02.572Z,73438
2015-11-20T02:04:14.915Z,73429
2015-11-20T02:04:27.337Z,73430
2015-11-20T02:04:39.681Z,73431
2015-11-20T02:04:52.009Z,73430
2015-11-20T02:05:04.355Z,73422
2015-11-20T02:05:16.683Z,73436
2015-11-20T02:05:29.042Z,73450
2015-11-20T02:05:40.699Z,73459
2015-11-20T02:05:53.058Z,73469
2015-11-20T02:06:05.420Z,73488
2015-11-20T02:06:17.795Z,73496
2015-11-20T02:06:30.217Z,73506
2015-11-20T02:06:42.639Z,73500
2015-11-20T02:06:55.014Z,73493
2015-11-20T02:07:07.377Z,73495
2015-11-20T02:07:19.752Z,73492
2015-11-20T02:07:32.127Z,73453
2015-11-20T02:07:44.533Z,73456
2015-11-20T02:07:56.877Z,73452
2015-11-20T02:08:09.223Z,73435
2015-11-20T02:08:21.614Z,73441
2015-11-20T02:08:33.973Z,73464
2015-11-20T02:08:46.317Z,73466
2015-11-20T02:08:58.676Z,73452
2015-11-20T02:09:11.085Z,73426
2015-11-20T02:09:23.428Z,73419
2015-11-20T02:09:35.819Z,73427
2015-11-20T02:09:48.178Z,73437
2015-11-20T02:10:00.507Z,73438
2015-11-20T02:10:12.853Z,73448
2015-11-20T02:10:24.494Z,73448
2015-11-20T02:10:36.213Z,73454
2015-11-20T02:10:48.635Z,73460
2015-11-20T02:11:00.994Z,73453
2015-11-20T02:11:13.340Z,73458
2015-11-20T02:11:25.699Z,73467
2015-11-20T02:11:38.058Z,73473
2015-11-20T02:11:50.433Z,73466
2015-11-20T02:12:02.715Z,73461
2015-11-20T02:12:15.125Z,73462
2015-11-20T02:12:27.500Z,73468
2015-11-20T02:12:39.891Z,73471
2015-11-20T02:12:52.234Z,73476
2015-11-20T02:13:03.859Z,73470
2015-11-20T02:13:16.205Z,73461
2015-11-20T02:13:28.564Z,73463
2015-11-20T02:13:40.908Z,73444
2015-11-20T02:13:53.283Z,73441
2015-11-20T02:14:05.627Z,73416
2015-11-20T02:14:17.974Z,73416
2015-11-20T02:14:30.317Z,73412
2015-11-20T02:14:42.677Z,73423
2015-11-20T02:14:55.021Z,73443
2015-11-20T02:15:07.367Z,73465
2015-11-20T02:15:19.711Z,73463
2015-11-20T02:15:32.133Z,73452
2015-11-20T02:15:44.508Z,73443
2015-11-20T02:15:56.852Z,73446
2015-11-20T02:16:09.213Z,73442
2015-11-20T02:16:21.557Z,73432
2015-11-20T02:16:33.916Z,73424
2015-11-20T02:16:46.291Z,73396
2015-11-20T02:16:58.666Z,73362
2015-11-20T02:17:11.044Z,73359
2015-11-20T02:17:23.435Z,73367
2015-11-20T02:17:35.810Z,73403
2015-11-20T02:17:48.185Z,73416
2015-11-20T02:18:00.560Z,73419
2015-11-20T02:18:12.921Z,73420
2015-11-20T02:18:25.249Z,73438
2015-11-20T02:18:37.656Z,73445
2015-11-20T02:18:49.999Z,73447
2015-11-20T02:19:01.624Z,73445
2015-11-20T02:19:13.972Z,73453
2015-11-20T02:19:26.331Z,73455
2015-11-20T02:19:38.675Z,73442
2015-11-20T02:19:51.097Z,73425
2015-11-20T02:20:03.441Z,73416
2015-11-20T02:20:15.787Z,73400
2015-11-20T02:20:28.130Z,73405
2015-11-20T02:20:40.474Z,73405
2015-11-20T02:20:52.818Z,73415
2015-11-20T02:21:05.162Z,73406
2015-11-20T02:21:17.524Z,73395
2015-11-20T02:21:29.977Z,73368
2015-11-20T02:21:42.336Z,73387
2015-11-20T02:21:53.977Z,73417
2015-11-20T02:22:06.352Z,73439
2015-11-20T02:22:18.573Z,73451
2015-11-20T02:22:30.948Z,73441
2015-11-20T02:22:43.417Z,73433
2015-11-20T02:22:55.151Z,73425
2015-11-20T02:23:07.557Z,73443
2015-11-20T02:23:19.951Z,73442
2015-11-20T02:23:32.388Z,73399
2015-11-20T02:23:44.732Z,73379
2015-11-20T02:23:57.076Z,73372
2015-11-20T02:24:09.420Z,73389
2015-11-20T02:24:21.766Z,73413
2015-11-20T02:24:34.126Z,73425
2015-11-20T02:24:46.485Z,73403
2015-11-20T02:24:58.844Z,73392
2015-11-20T02:25:11.188Z,73401
2015-11-20T02:25:23.551Z,73415
2015-11-20T02:25:35.910Z,73393
2015-11-20T02:25:47.551Z,73405
2015-11-20T02:25:59.894Z,73391
2015-11-20T02:26:12.222Z,73407
2015-11-20T02:26:24.584Z,73403
2015-11-20T02:26:36.943Z,73389
2015-11-20T02:26:49.146Z,73405
2015-11-20T02:27:01.568Z,73394
2015-11-20T02:27:13.943Z,73356
2015-11-20T02:27:26.322Z,73348
2015-11-20T02:27:38.713Z,73385
2015-11-20T02:27:51.072Z,73410
2015-11-20T02:28:03.447Z,73422
2015-11-20T02:28:15.838Z,73420
2015-11-20T02:28:28.247Z,73412
2015-11-20T02:28:40.685Z,73394
2015-11-20T02:28:53.075Z,73387
2015-11-20T02:29:05.419Z,73376
2015-11-20T02:29:17.763Z,73362
2015-11-20T02:29:30.124Z,73343
2015-11-20T02:29:42.468Z,73325
2015-11-20T02:29:54.812Z,73332
2015-11-20T02:30:07.171Z,73341
2015-11-20T02:30:19.515Z,73352
2015-11-20T02:30:31.861Z,73369
2015-11-20T02:30:44.205Z,73385
2015-11-20T02:30:56.627Z,73387
2015-11-20T02:31:08.971Z,73393
2015-11-20T02:31:21.315Z,73407
2015-11-20T02:31:33.660Z,73426
2015-11-20T02:31:46.004Z,73433
2015-11-20T02:31:58.379Z,73423
2015-11-20T02:32:10.770Z,73410
2015-11-20T02:32:23.207Z,73403
2015-11-20T02:32:35.571Z,73381
2015-11-20T02:32:47.930Z,73370
2015-11-20T02:33:00.336Z,73367
2015-11-20T02:33:12.696Z,73360
2015-11-20T02:33:25.071Z,73364
2015-11-20T02:33:37.449Z,73386
2015-11-20T02:33:49.839Z,73388
2015-11-20T02:34:02.214Z,73378
2015-11-20T02:34:14.620Z,73383
2015-11-20T02:34:27.027Z,73380
2015-11-20T02:34:39.372Z,73387
2015-11-20T02:34:51.810Z,73394
2015-11-20T02:35:04.154Z,73405
2015-11-20T02:35:16.497Z,73408
2015-11-20T02:35:28.857Z,73401
2015-11-20T02:35:41.297Z,73409
2015-11-20T02:35:53.641Z,73410
2015-11-20T02:36:06.000Z,73393
2015-11-20T02:36:18.344Z,73388
2015-11-20T02:36:30.688Z,73384
2015-11-20T02:36:43.050Z,73376
2015-11-20T02:36:55.410Z,73348
2015-11-20T02:37:07.753Z,73337
2015-11-20T02:37:20.113Z,73365
2015-11-20T02:37:32.472Z,73365
2015-11-20T02:37:44.835Z,73361
2015-11-20T02:37:57.210Z,73380
2015-11-20T02:38:08.866Z,73380
2015-11-20T02:38:21.241Z,73335
2015-11-20T02:38:33.600Z,73351
2015-11-20T02:38:45.977Z,73381
2015-11-20T02:38:58.321Z,73392